Latest Weather Observations for Christmas Creek

IDW60801

Issued at 10:14 pm WST Saturday 23 January 2021 (issued every 10 minutes, with the page automatically refreshed every 10 minutes)

About weather observations | Map of weather stations | Latest weather observations for WA | Other Formats
Station Details ID: 505049 Name: CHRISTMAS CREEK Lat: -22.36 Lon: 119.65 Height: 437.21 m
Data from the previous 72 hours. | See also: Recent months for locations in Western Australia
Date/Time
WST
Temp
°C
App
Temp
°C
Dew
Point
°C
Rel
Hum
%
Delta-T
°C
Wind Press
QNH
hPa
Press
MSL
hPa
Rain since
9am
mm
Dir  Spd
km/h
Gust
km/h
Spd
kts
Gust
kts
23/10:00pm 33.0 29.7 4.7 17 15.2 WSW 11 19 6 10 1005.3 1001.6 0.0
23/09:30pm 33.5 29.8 4.2 16 15.6 WSW 13 20 7 11 1005.2 1001.4 0.0
23/09:00pm 33.7 30.0 4.4 16 15.8 WSW 13 17 7 9 1005.0 1001.2 0.0
23/08:30pm 34.5 31.1 4.1 15 16.3 WSW 11 17 6 9 1004.7 1000.9 0.0
23/08:00pm 35.0 32.3 5.4 16 16.3 WSW 9 17 5 9 1004.5 1000.7 0.0
23/07:30pm 36.3 32.8 5.5 15 17.0 WSW 13 22 7 12 1004.2 1000.4 0.0
23/07:00pm 37.2 33.3 5.3 14 17.7 WSW 15 22 8 12 1003.8 1000.0 0.0
23/06:30pm 38.1 33.6 6.0 14 18.0 WSW 19 30 10 16 1003.3 999.6 0.0
23/06:00pm 38.8 33.8 6.5 14 18.4 W 22 37 12 20 1002.9 999.1 0.0
23/05:30pm 39.1 35.2 8.7 16 17.9 SW 19 32 10 17 1002.5 998.7 0.0
23/05:00pm 39.4 36.3 8.9 16 18.1 SW 15 30 8 16 1002.2 998.4 0.0
23/04:30pm 39.3 35.5 9.8 17 17.6 WSW 20 35 11 19 1002.1 998.3 0.0
23/04:00pm 40.0 36.7 9.4 16 18.3 WSW 17 35 9 19 1002.0 998.2 0.0
23/03:30pm 39.9 35.0 8.4 15 18.5 SW 24 33 13 18 1002.1 998.3 0.0
23/03:00pm 39.1 36.2 9.6 17 17.6 WSW 15 35 8 19 1002.2 998.4 0.0
23/02:30pm 39.4 36.1 11.5 19 17.1 SSW 20 35 11 19 1002.5 998.7 0.0
23/02:00pm 37.4 35.8 14.0 24 14.8 SSW 15 32 8 17 1002.8 999.0 0.0
23/01:30pm 37.2 34.8 14.5 26 14.4 SSW 20 33 11 18 1003.3 999.6 0.0
23/01:00pm 36.0 35.0 15.7 30 13.1 SW 15 30 8 16 1003.9 1000.1 0.0
23/12:30pm 34.3 33.7 16.6 34 11.4 SW 15 30 8 16 1004.3 1000.5 0.0
23/12:00pm 33.8 33.4 17.1 37 10.9 SSW 15 24 8 13 1004.7 1000.9 0.0
23/11:30am 32.4 33.3 17.5 41 9.7 SW 9 22 5 12 1005.1 1001.3 0.0
23/11:00am 31.1 31.9 18.1 46 8.5 SSW 11 19 6 10 1005.6 1001.9 0.0
23/10:30am 29.8 30.3 18.3 50 7.5 SSW 13 22 7 12 1005.7 1002.0 0.0
23/10:00am 29.2 30.8 18.3 51 7.1 SSW 7 19 4 10 1005.8 1002.1 0.0
23/09:30am 28.4 29.3 18.5 55 6.5 S 11 20 6 11 1006.1 1002.3 0.0
23/09:00am 27.4 28.3 18.4 58 5.9 S 11 19 6 10 1006.2 1002.4 -
23/08:30am 26.8 27.8 18.6 60 5.3 SSE 11 20 6 11 1006.4 1002.6 -
23/08:00am 25.8 25.6 18.5 64 4.7 SSE 17 22 9 12 1006.4 1002.6 -
23/07:30am 25.5 25.4 18.7 66 4.4 SSE 17 26 9 14 1006.3 1002.5 -
23/07:00am 24.4 24.3 18.8 71 3.6 SSE 17 22 9 12 1005.9 1002.2 -
23/06:30am 24.1 24.7 18.7 72 3.5 SSE 13 19 7 10 1005.7 1002.0 -
23/06:00am 23.9 24.6 18.8 73 3.3 S 13 19 7 10 1005.5 1001.8 -
23/05:30am 23.6 24.7 18.9 75 3.0 SSE 11 17 6 9 1005.3 1001.6 -
23/05:00am 23.3 23.6 18.8 76 2.9 S 15 22 8 12 1005.1 1001.3 -
23/04:30am 23.5 24.2 18.8 75 3.0 S 13 24 7 13 1005.0 1001.2 -
23/04:00am 23.3 24.4 18.8 76 2.9 SSW 11 19 6 10 1004.9 1001.1 -
23/03:30am 23.4 24.5 18.9 76 2.9 SSW 11 17 6 9 1004.9 1001.1 -
23/03:00am 23.4 24.6 19.1 77 2.8 SSW 11 19 6 10 1004.9 1001.1 0.0
23/02:30am 23.2 24.3 18.9 77 2.8 S 11 17 6 9 1004.3 1000.5 -
23/02:00am 23.1 24.3 19.1 78 2.6 S 11 15 6 8 1004.2 1000.4 -
23/01:30am 23.1 24.3 19.1 78 2.6 S 11 17 6 9 1004.2 1000.4 -
23/01:00am 23.0 23.6 18.7 77 2.8 S 13 17 7 9 1004.5 1000.7 -
23/12:30am 23.2 23.1 18.7 76 2.9 SSE 17 26 9 14 1004.8 1001.0 -
23/12:00am 23.4 22.6 18.5 74 3.2 SSE 20 28 11 15 1005.0 1001.2 -
 
Date/Time
WST
Temp
°C
App
Temp
°C
Dew
Point
°C
Rel
Hum
%
Delta-T
°C
Wind Press
QNH
hPa
Press
MSL
hPa
Rain since
9am
mm
Dir  Spd
km/h
Gust
km/h
Spd
kts
Gust
kts
22/11:30pm 23.6 23.5 18.7 74 3.2 SE 17 22 9 12 1005.5 1001.8 -
22/11:00pm 23.6 23.3 19.1 76 2.9 SE 19 28 10 15 1005.9 1002.2 -
22/10:30pm 23.9 24.5 19.4 76 2.9 SE 15 22 8 12 1006.9 1003.1 -
22/10:00pm 23.9 24.6 19.6 77 2.8 SE 15 22 8 12 1006.9 1003.1 -
22/09:30pm 24.1 23.6 20.0 78 2.7 ESE 22 30 12 16 1006.6 1002.8 -
22/09:00pm 24.0 23.7 20.3 80 2.4 SE 22 35 12 19 1006.7 1002.9 0.0
22/08:30pm 24.4 23.6 20.1 77 2.8 SE 24 33 13 18 1006.4 1002.6 -
22/08:00pm 25.3 24.7 19.7 71 3.7 SE 22 35 12 19 1005.9 1002.2 -
22/07:30pm 25.2 24.4 19.3 70 3.9 SE 22 32 12 17 1006.1 1002.3 -
22/07:00pm 25.6 22.9 19.3 68 4.1 ESE 32 41 17 22 1005.6 1001.9 -
22/06:30pm 26.7 25.9 20.1 67 4.4 ESE 24 32 13 17 1005.5 1001.8 -
22/06:00pm 27.7 26.5 19.2 60 5.6 ESE 24 33 13 18 1005.1 1001.3 -
22/05:30pm 27.6 26.2 19.7 62 5.2 ESE 26 43 14 23 1005.1 1001.3 -
22/05:00pm 28.9 27.3 18.4 53 6.9 ESE 24 33 13 18 1004.7 1000.9 -
22/04:30pm 28.9 26.4 18.1 52 7.0 ESE 28 43 15 23 1004.6 1000.8 -
22/04:00pm 28.8 26.3 18.9 55 6.5 ESE 30 41 16 22 1004.4 1000.6 -
22/03:30pm 30.3 27.0 17.0 44 8.5 SE 30 39 16 21 1004.6 1000.8 -
22/03:00pm 30.1 27.3 17.2 46 8.3 SE 28 43 15 23 1005.1 1001.3 -
22/02:30pm 30.2 26.5 16.9 44 8.5 ESE 32 43 17 23 1005.5 1001.8 0.0
22/02:00pm 30.2 27.0 17.3 46 8.3 ESE 30 41 16 22 1005.9 1002.2 0.0
22/01:30pm 30.6 26.8 16.6 43 8.9 ESE 32 44 17 24 1006.3 1002.5 0.0
22/01:00pm 30.9 26.4 15.3 38 9.8 ESE 33 50 18 27 1006.6 1002.8 0.0
22/12:38pm 31.9 28.0 15.4 37 10.4 ESE 30 48 16 26 1006.7 1002.9 0.0
22/12:30pm 31.8 28.1 14.9 36 10.6 ESE 28 44 15 24 1006.8 1003.0 0.0
22/12:00pm 31.7 27.3 15.2 36 10.4 ESE 32 43 17 23 1007.3 1003.5 0.0
22/11:41am 30.6 26.7 15.5 40 9.5 ESE 30 48 16 26 1007.5 1003.8 0.0
22/11:30am 30.7 27.7 15.9 40 9.4 ESE 26 37 14 20 1007.9 1004.2 0.0
22/11:00am 29.8 27.2 16.9 45 8.3 ESE 26 44 14 24 1008.3 1004.6 0.0
22/10:30am 30.2 28.9 16.9 44 8.5 E 19 28 10 15 1008.6 1004.8 0.0
22/10:00am 30.0 28.1 16.8 45 8.5 E 22 39 12 21 1008.9 1005.1 0.0
22/09:30am 30.4 27.8 16.8 44 8.7 SE 26 37 14 20 1008.8 1005.0 0.0
22/09:00am 29.7 28.1 16.1 43 8.6 ESE 19 28 10 15 1009.0 1005.2 -
22/08:30am 29.2 28.5 16.4 46 8.1 ESE 15 22 8 12 1008.8 1005.0 -
22/08:00am 29.0 29.4 17.2 49 7.6 SSE 11 17 6 9 1009.0 1005.2 -
22/07:30am 28.2 29.2 17.7 53 6.8 S 9 15 5 8 1009.0 1005.2 -
22/07:00am 27.7 29.0 17.5 53 6.5 SE 7 9 4 5 1008.9 1005.1 -
22/06:39am 27.5 29.4 17.7 55 6.3 ESE 4 6 2 3 1009.0 1005.2 -
22/06:30am 27.3 29.5 17.5 55 6.3 E 2 4 1 2 1008.8 1005.0 -
22/06:00am 27.3 28.8 17.5 55 6.3 NE 6 6 3 3 1008.9 1005.1 -
22/05:30am 27.2 28.9 17.1 54 6.4 NNE 4 6 2 3 1008.6 1004.8 -
22/05:00am 27.3 28.4 17.2 54 6.4 NNE 7 9 4 5 1008.5 1004.7 -
22/04:30am 27.5 27.5 17.1 53 6.6 NNE 13 17 7 9 1008.3 1004.6 -
22/04:00am 27.8 28.6 18.2 56 6.2 NNE 11 15 6 8 1008.2 1004.5 -
22/03:30am 28.1 28.3 18.5 56 6.3 NNW 15 19 8 10 1008.1 1004.4 -
22/02:30am 28.6 29.4 19.0 56 6.3 NNW 13 19 7 10 1008.0 1004.3 -
22/02:00am 28.7 29.2 19.3 56 6.2 NNW 15 20 8 11 1007.7 1004.0 -
22/01:30am 28.8 28.6 19.7 58 6.0 NNW 20 30 11 16 1007.6 1003.9 -
22/01:00am 29.0 28.3 20.2 59 5.9 N 24 32 13 17 1008.3 1004.6 -
22/12:30am 29.5 29.3 19.8 56 6.5 NNW 20 30 11 16 1008.7 1004.9 -
22/12:00am 29.7 30.9 20.0 56 6.5 NNW 13 20 7 11 1008.6 1004.8 -
 
Date/Time
WST
Temp
°C
App
Temp
°C
Dew
Point
°C
Rel
Hum
%
Delta-T
°C
Wind Press
QNH
hPa
Press
MSL
hPa
Rain since
9am
mm
Dir  Spd
km/h
Gust
km/h
Spd
kts
Gust
kts
21/11:30pm 29.7 30.0 20.3 57 6.3 N 19 30 10 16 1009.1 1005.3 -
21/11:00pm 29.7 29.5 19.7 55 6.7 NNW 20 30 11 16 1009.7 1006.0 -
21/10:30pm 30.0 29.6 19.4 53 7.0 NW 20 26 11 14 1009.6 1005.9 -
21/10:00pm 30.2 29.5 19.6 53 7.1 NNW 22 28 12 15 1009.0 1005.2 -
21/09:30pm 31.0 30.3 18.7 48 8.1 N 20 26 11 14 1008.7 1004.9 -
21/09:00pm 31.5 29.7 17.8 44 8.9 N 24 33 13 18 1008.5 1004.7 0.0
21/08:30pm 31.6 28.7 17.9 44 8.9 N 30 37 16 20 1008.2 1004.5 -
21/08:00pm 31.9 28.5 17.8 43 9.2 N 32 43 17 23 1007.8 1004.1 -
21/07:30pm 32.4 28.1 18.6 44 9.1 N 39 50 21 27 1007.4 1003.7 -
21/07:19pm 33.6 30.0 17.7 38 10.4 N 33 52 18 28 1007.2 1003.4 -
21/07:00pm 34.4 31.6 17.2 36 11.2 N 28 37 15 20 1006.7 1002.9 -
21/06:30pm 34.8 31.7 16.6 33 11.8 N 28 33 15 18 1006.1 1002.3 -
21/06:00pm 34.6 30.9 16.9 35 11.5 N 32 39 17 21 1005.8 1002.1 -
21/05:30pm 35.6 31.5 17.3 33 12.0 N 35 44 19 24 1005.6 1001.9 -
21/05:17pm 38.1 35.8 15.8 26 14.4 NE 22 50 12 27 1005.4 1001.7 -
21/05:00pm 38.4 35.8 10.7 19 16.7 ESE 15 22 8 12 1005.1 1001.3 -
21/04:30pm 38.9 35.2 10.3 18 17.2 ENE 20 30 11 16 1005.4 1001.7 -
21/04:00pm 39.4 36.2 9.8 17 17.7 NE 17 30 9 16 1005.2 1001.4 -
21/03:30pm 39.4 37.2 10.7 18 17.4 ENE 13 26 7 14 1005.5 1001.8 -
21/03:00pm 40.2 36.8 10.5 17 18.0 NE 19 33 10 18 1005.9 1002.2 -
21/02:30pm 39.4 37.4 11.5 19 17.1 E 13 22 7 12 1006.6 1002.8 -
21/02:00pm 39.2 38.5 12.1 20 16.7 N 7 15 4 8 1007.1 1003.3 -
21/01:30pm 38.5 36.5 11.5 20 16.5 NNE 13 24 7 13 1007.5 1003.8 -
21/01:00pm 38.5 37.9 12.3 21 16.2 NNW 7 20 4 11 1007.8 1004.1 -
21/12:30pm 38.0 37.3 13.3 23 15.4 NNW 9 17 5 9 1008.3 1004.6 -
21/12:00pm 37.2 37.1 13.9 25 14.7 N 7 19 4 10 1008.7 1004.9 -
21/11:30am 37.2 36.7 13.9 25 14.6 ENE 9 19 5 10 1009.1 1005.3 0.0
21/11:00am 35.9 35.1 14.0 27 13.7 NE 11 22 6 12 1009.5 1005.8 0.0
21/10:30am 36.0 34.5 14.1 27 13.7 NNE 15 22 8 12 1010.1 1006.4 0.0
21/10:08am 35.6 34.9 14.3 28 13.4 N 11 20 6 11 1010.2 1006.5 0.0
21/10:00am 35.0 33.5 14.3 29 13.0 N 15 24 8 13 1010.3 1006.6 0.0
21/09:54am 36.0 35.4 14.6 27 13.5 NE 11 24 6 13 1010.3 1006.6 0.0
21/09:30am 34.9 34.7 13.7 28 13.2 ESE 7 15 4 8 1010.4 1006.7 0.0
21/09:00am 34.4 34.3 13.8 29 12.8 NE 7 17 4 9 1010.3 1006.6 -
21/08:30am 33.9 33.8 13.4 29 12.6 NNE 6 11 3 6 1010.3 1006.6 -
21/08:00am 32.9 33.0 14.0 32 11.7 NNW 6 9 3 5 1010.3 1006.6 -
21/07:30am 31.3 30.2 14.4 35 10.5 N 13 19 7 10 1010.4 1006.7 -
21/07:00am 29.7 29.1 14.7 40 9.3 N 11 13 6 7 1010.2 1006.5 -
21/06:30am 28.8 28.2 14.6 42 8.7 N 11 13 6 7 1010.1 1006.4 -
21/06:00am 28.3 28.0 14.5 43 8.5 NNW 9 11 5 6 1009.9 1006.2 -
21/05:30am 28.2 28.5 14.4 42 8.5 NNW 6 11 3 6 1009.4 1005.6 -
21/05:00am 28.8 28.1 14.2 40 9.0 NNW 11 15 6 8 1009.0 1005.2 -
21/04:30am 29.0 27.8 14.0 39 9.2 NNW 13 17 7 9 1008.8 1005.0 -
21/03:30am 29.2 27.2 12.6 36 9.9 NNW 15 19 8 10 1008.7 1004.9 -
21/03:00am 29.1 27.3 12.1 35 10.1 N 13 17 7 9 1008.6 1004.8 0.0
21/02:30am 29.6 27.7 12.9 35 10.1 N 15 19 8 10 1008.3 1004.6 -
21/02:00am 29.9 27.9 12.8 35 10.3 NNW 15 20 8 11 1008.5 1004.7 -
21/01:30am 30.1 28.8 12.5 34 10.5 N 11 15 6 8 1008.6 1004.8 -
21/01:00am 30.6 29.1 12.0 32 11.1 WNW 11 17 6 9 1008.6 1004.8 -
21/12:30am 31.2 28.7 11.1 29 11.8 N 15 20 8 11 1009.0 1005.2 -
21/12:00am 32.2 27.9 10.8 27 12.6 NW 24 33 13 18 1008.9 1005.1 -
 
Date/Time
WST
Temp
°C
App
Temp
°C
Dew
Point
°C
Rel
Hum
%
Delta-T
°C
Wind Press
QNH
hPa
Press
MSL
hPa
Rain since
9am
mm
Dir  Spd
km/h
Gust
km/h
Spd
kts
Gust
kts
20/11:30pm 32.1 30.1 6.3 20 14.1 NE 6 7 3 4 1008.9 1005.1 -
20/11:00pm 32.4 30.9 6.6 20 14.3 NNE 4 7 2 4 1009.2 1005.4 -
20/10:30pm 33.5 30.3 5.1 17 15.4 NNE 11 13 6 7 1009.4 1005.6 -

Other formats

Comma delimited format used in spreadsheet applications
http://www.bom.gov.au/fwo/IDW60801/IDW60801.99737.axf

JavaScript Object Notation format (JSON) in row-major order
http://www.bom.gov.au/fwo/IDW60801/IDW60801.99737.json

Data quality

Most of these data are generated automatically and are frequently updated. Quality checks on data are not normally performed. It is possible for incorrect values to appear. Refer to information at About Latest Weather Observations and please check the disclaimer before using these data.